Time;durP1;ratioP1;P1;durP2;ratioP2;P2;SDS_P1;SDS_P2;PMS_P1;PMS_P2;Temp;Humidity;BMP_temperature;BMP_pressure;BME280_temperature;BME280_humidity;BME280_pressure;Samples;Min_cycle;Max_cycle;Signal;HPM_P1;HPM_P2
2023/11/19 00:00:37;;;;;;;6.10;4.30;;;;;;;4.05;89.07;101148.53;5027500;28;20207;-73
2023/11/19 00:03:04;;;;;;;6.40;4.50;;;;;;;4.05;89.11;101151.13;5023388;28;20230;-73
2023/11/19 00:05:30;;;;;;;5.17;4.40;;;;;;;4.07;88.27;101154.28;5028217;28;20219;-73
2023/11/19 00:07:58;;;;;;;8.40;4.73;;;;;;;4.09;87.97;101151.41;5028740;28;20197;-73
2023/11/19 00:10:25;;;;;;;5.67;4.43;;;;;;;4.10;88.48;101138.03;5022720;28;20209;-73
2023/11/19 00:12:51;;;;;;;6.27;4.60;;;;;;;4.10;87.93;101132.81;5023020;28;20200;-74
2023/11/19 00:15:18;;;;;;;6.63;4.37;;;;;;;4.12;88.06;101135.97;5018128;28;20224;-72
2023/11/19 00:17:47;;;;;;;7.93;4.23;;;;;;;4.13;88.00;101115.81;5029403;28;20274;-72
2023/11/19 00:20:14;;;;;;;7.60;4.50;;;;;;;4.15;87.88;101111.88;5024936;28;20674;-73
2023/11/19 00:22:41;;;;;;;5.80;4.43;;;;;;;4.17;87.89;101115.03;5027512;28;20251;-73
2023/11/19 00:25:09;;;;;;;7.23;5.30;;;;;;;4.18;88.00;101103.53;5023339;28;20270;-73
2023/11/19 00:27:37;;;;;;;6.87;4.50;;;;;;;4.19;88.36;101099.09;5025673;28;20200;-73
2023/11/19 00:30:05;;;;;;;7.17;4.50;;;;;;;4.20;88.22;101082.34;5040578;28;20730;-73
2023/11/19 00:32:32;;;;;;;7.73;5.10;;;;;;;4.20;88.17;101080.50;5040612;28;20202;-73
2023/11/19 00:35:00;;;;;;;5.67;4.43;;;;;;;4.22;88.02;101073.19;5021953;28;20210;-71
2023/11/19 00:37:26;;;;;;;5.83;4.47;;;;;;;4.23;87.96;101071.34;5020488;28;20208;-72
2023/11/19 00:39:53;;;;;;;7.77;4.70;;;;;;;4.25;88.44;101077.09;5025286;28;20219;-73
2023/11/19 00:42:20;;;;;;;6.00;3.97;;;;;;;4.26;88.94;101074.19;5043088;28;20216;-73
2023/11/19 00:44:47;;;;;;;6.80;4.33;;;;;;;4.27;87.97;101062.69;5023136;28;20217;-73
2023/11/19 00:47:13;;;;;;;6.47;4.53;;;;;;;4.27;87.14;101049.63;5041526;28;20212;-73
2023/11/19 00:49:40;;;;;;;6.23;4.40;;;;;;;4.28;88.17;101048.56;5024461;28;20303;-73
2023/11/19 00:52:07;;;;;;;4.60;4.17;;;;;;;4.29;86.88;101046.72;5018940;28;20255;-73
2023/11/19 00:54:33;;;;;;;5.03;3.83;;;;;;;4.29;87.96;101050.13;5023914;28;20234;-72
2023/11/19 00:57:01;;;;;;;6.00;4.60;;;;;;;4.31;88.46;101055.09;5017620;28;20595;-73
2023/11/19 00:59:29;;;;;;;5.83;4.17;;;;;;;4.30;87.73;101051.69;5023160;28;20571;-72
2023/11/19 01:01:56;;;;;;;7.10;4.63;;;;;;;4.31;87.73;101040.16;5017991;28;20231;-73
2023/11/19 01:04:24;;;;;;;7.40;4.80;;;;;;;4.32;87.31;101038.34;5036548;28;20216;-73
2023/11/19 01:06:50;;;;;;;8.00;4.13;;;;;;;4.34;87.42;101036.22;5026767;28;20203;-72
2023/11/19 01:09:16;;;;;;;6.57;4.27;;;;;;;4.35;88.03;101029.97;5024647;28;20315;-73
2023/11/19 01:11:43;;;;;;;6.57;4.43;;;;;;;4.35;87.07;101016.91;5028207;28;20226;-73
2023/11/19 01:14:09;;;;;;;5.63;4.57;;;;;;;4.35;87.47;101009.81;5039760;28;20689;-72
2023/11/19 01:16:37;;;;;;;5.97;4.57;;;;;;;4.36;87.02;101014.00;5040750;28;20200;-73
2023/11/19 01:19:04;;;;;;;5.90;3.90;;;;;;;4.38;87.22;101011.91;5023693;28;20196;-73
2023/11/19 01:21:31;;;;;;;5.97;4.40;;;;;;;4.39;86.76;101004.81;5037304;28;20227;-73
2023/11/19 01:23:58;;;;;;;5.73;4.47;;;;;;;4.41;86.22;100997.50;5038700;28;20200;-73
2023/11/19 01:26:24;;;;;;;8.07;4.43;;;;;;;4.41;88.46;100977.34;5023009;28;20227;-73
2023/11/19 01:28:52;;;;;;;7.00;4.73;;;;;;;4.42;87.26;100978.94;5021003;28;20204;-73
2023/11/19 01:31:19;;;;;;;7.20;4.87;;;;;;;4.44;86.76;100978.63;5016726;28;20250;-73
2023/11/19 01:33:47;;;;;;;5.37;4.23;;;;;;;4.45;87.32;100991.44;5022054;28;20546;-72
2023/11/19 01:36:15;;;;;;;6.07;4.27;;;;;;;4.47;86.90;100975.47;5019653;28;20218;-73
2023/11/19 01:38:42;;;;;;;7.70;4.83;;;;;;;4.48;88.10;100962.13;5036366;28;20616;-73
2023/11/19 01:41:08;;;;;;;5.53;4.13;;;;;;;4.49;87.43;100944.59;5021968;28;21087;-73
2023/11/19 01:43:36;;;;;;;6.27;4.27;;;;;;;4.49;87.65;100952.44;5025441;28;20223;-73
2023/11/19 01:46:02;;;;;;;6.97;4.80;;;;;;;4.50;87.33;100943.56;5021964;28;20314;-73
2023/11/19 01:48:29;;;;;;;7.27;4.20;;;;;;;4.50;88.10;100920.78;5026567;28;20231;-73
2023/11/19 01:50:58;;;;;;;5.80;4.47;;;;;;;4.52;88.55;100912.69;5035759;28;20196;-72
2023/11/19 01:53:25;;;;;;;6.70;4.60;;;;;;;4.51;88.11;100898.81;5020133;28;20661;-73
2023/11/19 01:55:52;;;;;;;6.53;4.27;;;;;;;4.51;88.04;100888.34;5024761;28;20324;-72
2023/11/19 01:58:19;;;;;;;6.47;4.50;;;;;;;4.51;89.41;100879.75;5023373;28;20290;-73
2023/11/19 02:00:46;;;;;;;9.67;4.77;;;;;;;4.51;89.22;100883.13;5036755;28;20640;-72
2023/11/19 02:03:13;;;;;;;5.33;3.97;;;;;;;4.52;89.76;100868.22;5004693;28;20261;-73
2023/11/19 02:05:40;;;;;;;6.33;4.63;;;;;;;4.51;88.80;100853.59;5018632;28;20220;-72
2023/11/19 02:08:08;;;;;;;5.47;3.97;;;;;;;4.51;88.51;100856.97;5026291;28;20207;-73
2023/11/19 02:10:35;;;;;;;8.00;4.50;;;;;;;4.50;89.23;100857.28;5019778;28;20697;-73
2023/11/19 02:13:02;;;;;;;6.57;4.40;;;;;;;4.51;90.62;100841.28;5021150;28;20215;-73
2023/11/19 02:15:28;;;;;;;5.20;3.97;;;;;;;4.50;90.00;100841.59;5036753;28;20495;-73
2023/11/19 02:17:54;;;;;;;6.53;4.20;;;;;;;4.50;89.74;100821.44;5020822;28;20703;-73
2023/11/19 02:20:21;;;;;;;7.90;4.53;;;;;;;4.50;90.06;100816.19;5013920;28;20196;-72
2023/11/19 02:22:50;;;;;;;6.53;4.20;;;;;;;4.51;90.62;100811.75;5037077;28;20252;-73
2023/11/19 02:25:25;;;;;;;5.93;4.63;;;;;;;4.51;91.10;100804.69;5036559;28;20228;-73
2023/11/19 02:27:56;;;;;;;6.63;4.30;;;;;;;4.50;90.68;100808.34;5038979;28;20198;-73
2023/11/19 02:30:26;;;;;;;5.67;4.10;;;;;;;4.50;90.15;100791.91;5027357;28;20202;-73
2023/11/19 02:32:52;;;;;;;5.00;4.07;;;;;;;4.50;90.19;100803.13;5021754;28;20298;-72
2023/11/19 02:35:21;;;;;;;5.63;4.33;;;;;;;4.51;90.33;100790.84;5020090;28;20622;-73
2023/11/19 02:37:48;;;;;;;6.53;4.20;;;;;;;4.51;90.88;100785.63;5035888;28;20199;-72
2023/11/19 02:40:14;;;;;;;5.17;4.20;;;;;;;4.50;91.63;100784.81;5017654;28;20247;-73
2023/11/19 02:42:41;;;;;;;4.37;3.60;;;;;;;4.50;91.26;100778.84;5036808;28;20206;-73
2023/11/19 02:45:14;;;;;;;5.13;3.73;;;;;;;4.49;91.12;100762.34;5023881;28;20629;-72
2023/11/19 02:47:40;;;;;;;4.40;3.47;;;;;;;4.49;91.67;100756.34;5017313;28;20205;-72
2023/11/19 02:50:13;;;;;;;5.47;3.70;;;;;;;4.49;91.46;100764.19;5020736;28;20202;-73
2023/11/19 02:52:40;;;;;;;4.73;3.40;;;;;;;4.50;91.79;100748.22;5019783;28;20290;-72
2023/11/19 02:55:09;;;;;;;4.83;3.60;;;;;;;4.49;91.72;100736.22;5034543;28;20231;-72
2023/11/19 02:57:35;;;;;;;4.30;3.20;;;;;;;4.50;92.06;100726.53;5025249;28;20206;-72
2023/11/19 03:00:06;;;;;;;4.70;3.10;;;;;;;4.52;92.79;100716.56;5029807;28;20218;-72
2023/11/19 03:02:43;;;;;;;5.93;3.63;;;;;;;4.53;93.00;100707.66;5038175;28;20225;-73
2023/11/19 03:05:10;;;;;;;5.97;3.50;;;;;;;4.55;92.47;100708.16;5030232;28;20628;-73
2023/11/19 03:07:37;;;;;;;4.53;3.63;;;;;;;4.54;92.98;100681.25;5042428;28;20578;-73
2023/11/19 03:10:05;;;;;;;4.70;3.30;;;;;;;4.55;93.27;100659.25;5021547;28;20471;-72
2023/11/19 03:12:31;;;;;;;4.53;3.37;;;;;;;4.56;92.76;100662.66;5044271;28;20205;-72
2023/11/19 03:14:58;;;;;;;4.53;3.50;;;;;;;4.56;92.38;100650.34;5021326;28;20223;-72
2023/11/19 03:17:25;;;;;;;5.37;3.10;;;;;;;4.57;92.50;100653.75;5035801;28;20292;-73
2023/11/19 03:19:52;;;;;;;4.57;3.27;;;;;;;4.58;92.40;100660.53;5043347;28;20220;-72
2023/11/19 03:22:19;;;;;;;4.50;3.07;;;;;;;4.59;92.47;100667.31;5024326;28;20704;-73
2023/11/19 03:24:45;;;;;;;3.73;3.03;;;;;;;4.60;92.84;100653.16;5022643;28;20240;-72
2023/11/19 03:27:12;;;;;;;5.67;3.70;;;;;;;4.60;93.37;100653.94;5023457;28;20640;-73
2023/11/19 03:29:39;;;;;;;4.63;3.67;;;;;;;4.63;93.63;100665.69;5022093;28;20238;-72
2023/11/19 03:32:06;;;;;;;4.00;3.57;;;;;;;4.62;93.05;100658.91;5023991;28;20207;-72
2023/11/19 03:34:33;;;;;;;4.73;3.80;;;;;;;4.62;92.97;100643.97;5043502;28;20220;-72
2023/11/19 03:37:01;;;;;;;5.93;3.60;;;;;;;4.64;93.63;100628.00;5028496;28;20204;-72
2023/11/19 03:39:27;;;;;;;4.83;3.50;;;;;;;4.64;93.31;100617.53;5042570;28;20338;-72
2023/11/19 03:41:54;;;;;;;5.43;3.80;;;;;;;4.64;92.97;100623.56;5025832;28;20241;-72
2023/11/19 03:44:21;;;;;;;4.90;3.83;;;;;;;4.64;92.68;100617.53;5018808;28;20462;-73
2023/11/19 03:46:47;;;;;;;4.57;3.30;;;;;;;4.63;92.62;100606.31;5024338;28;20200;-73
2023/11/19 03:49:14;;;;;;;5.77;3.77;;;;;;;4.63;91.94;100614.16;5019445;28;20206;-72
2023/11/19 03:51:40;;;;;;;4.10;3.60;;;;;;;4.64;92.42;100609.69;5036778;28;20295;-73
2023/11/19 03:54:08;;;;;;;4.73;3.60;;;;;;;4.65;91.75;100600.78;5022014;28;20203;-73
2023/11/19 03:56:35;;;;;;;5.77;4.00;;;;;;;4.64;92.26;100588.78;5038734;28;20207;-71
2023/11/19 03:59:01;;;;;;;4.87;3.70;;;;;;;4.65;93.47;100575.41;5025839;28;20214;-73
2023/11/19 04:01:27;;;;;;;4.97;3.43;;;;;;;4.66;92.67;100576.22;5023673;28;20203;-73
2023/11/19 04:03:55;;;;;;;6.97;3.67;;;;;;;4.66;92.60;100579.59;5046442;28;20649;-73
2023/11/19 04:06:22;;;;;;;6.27;4.00;;;;;;;4.65;93.03;100574.63;5022546;28;20247;-73
2023/11/19 04:08:49;;;;;;;4.47;3.23;;;;;;;4.66;92.41;100581.44;5025001;28;20210;-72
2023/11/19 04:11:17;;;;;;;4.83;3.67;;;;;;;4.67;92.20;100570.66;5025334;28;20207;-73
2023/11/19 04:13:43;;;;;;;4.77;3.60;;;;;;;4.67;92.30;100573.28;5023601;28;20192;-73
2023/11/19 04:16:10;;;;;;;4.77;3.40;;;;;;;4.67;92.43;100564.69;5023325;28;20713;-73
2023/11/19 04:18:36;;;;;;;3.87;3.20;;;;;;;4.69;92.78;100562.53;5039445;28;20548;-73
2023/11/19 04:21:06;;;;;;;5.67;3.27;;;;;;;4.67;92.40;100552.38;5037235;28;20280;-73
2023/11/19 04:23:33;;;;;;;6.17;3.63;;;;;;;4.69;92.07;100544.25;5028384;28;20204;-73
2023/11/19 04:25:59;;;;;;;5.67;4.13;;;;;;;4.69;92.27;100549.47;5025881;28;20227;-73
2023/11/19 04:28:28;;;;;;;3.50;3.20;;;;;;;4.69;92.17;100534.56;5019446;28;20195;-73
2023/11/19 04:30:55;;;;;;;3.70;3.20;;;;;;;4.69;93.21;100533.78;5027855;28;20196;-73
2023/11/19 04:33:21;;;;;;;5.00;3.60;;;;;;;4.69;92.95;100518.09;5026262;28;20200;-73
2023/11/19 04:35:48;;;;;;;3.87;3.27;;;;;;;4.70;93.51;100511.78;5029499;28;20226;-73
2023/11/19 04:38:14;;;;;;;4.30;3.23;;;;;;;4.69;92.53;100507.63;5037626;28;20212;-73
2023/11/19 04:40:41;;;;;;;4.43;3.50;;;;;;;4.69;92.13;100492.72;5023036;28;20674;-73
2023/11/19 04:43:08;;;;;;;3.93;3.10;;;;;;;4.71;92.74;100487.22;5022422;28;20211;-72
2023/11/19 04:45:35;;;;;;;3.83;3.10;;;;;;;4.70;92.94;100477.78;5027590;28;20226;-73
2023/11/19 04:48:02;;;;;;;4.50;3.47;;;;;;;4.71;93.30;100477.50;5024768;28;20225;-71
2023/11/19 04:50:28;;;;;;;3.70;3.00;;;;;;;4.70;93.04;100467.31;5021147;28;20219;-73
2023/11/19 04:52:55;;;;;;;4.43;3.17;;;;;;;4.71;93.11;100466.28;5023070;28;20568;-73
2023/11/19 04:55:22;;;;;;;4.40;3.50;;;;;;;4.68;93.67;100466.84;5019202;28;20617;-73
2023/11/19 04:57:48;;;;;;;3.93;3.10;;;;;;;4.70;93.54;100457.66;5025272;28;20207;-73
2023/11/19 05:00:15;;;;;;;3.93;2.97;;;;;;;4.69;93.88;100461.34;5020810;28;20203;-73
2023/11/19 05:02:43;;;;;;;3.30;2.77;;;;;;;4.70;94.15;100460.25;5021206;28;20205;-72
2023/11/19 05:05:09;;;;;;;3.77;2.90;;;;;;;4.70;94.73;100454.25;5024045;28;20229;-72
2023/11/19 05:07:35;;;;;;;2.90;2.60;;;;;;;4.67;94.96;100450.38;5040062;28;20207;-73
2023/11/19 05:10:05;;;;;;;4.20;3.30;;;;;;;4.67;95.10;100433.91;5027848;28;20191;-72
2023/11/19 05:12:32;;;;;;;3.47;2.67;;;;;;;4.67;94.76;100434.69;5027696;28;20237;-73
2023/11/19 05:14:58;;;;;;;4.17;3.20;;;;;;;4.66;95.25;100432.38;5027682;28;20215;-73
2023/11/19 05:17:24;;;;;;;3.47;2.90;;;;;;;4.66;95.39;100429.75;5026090;28;20210;-73
2023/11/19 05:19:52;;;;;;;3.90;2.97;;;;;;;4.65;96.04;100430.81;5027026;28;20211;-73
2023/11/19 05:22:20;;;;;;;4.03;3.03;;;;;;;4.66;95.71;100427.91;5026151;28;20283;-72
2023/11/19 05:24:48;;;;;;;3.93;2.93;;;;;;;4.66;96.20;100409.59;5040031;28;20684;-72
2023/11/19 05:27:14;;;;;;;3.70;3.07;;;;;;;4.67;95.86;100399.94;5019051;28;20588;-72
2023/11/19 05:29:41;;;;;;;4.23;2.93;;;;;;;4.65;96.70;100396.81;5025609;28;20707;-72
2023/11/19 05:32:08;;;;;;;3.30;2.60;;;;;;;4.66;97.01;100398.38;5022743;28;20196;-73
2023/11/19 05:34:34;;;;;;;3.77;2.67;;;;;;;4.65;97.01;100394.19;5029538;28;20217;-73
2023/11/19 05:37:02;;;;;;;5.33;2.70;;;;;;;4.66;97.25;100398.38;5027577;28;20192;-73
2023/11/19 05:39:28;;;;;;;3.13;2.80;;;;;;;4.66;97.51;100385.31;5028453;28;20596;-72
2023/11/19 05:41:55;;;;;;;3.17;2.83;;;;;;;4.67;97.80;100384.22;5028201;28;20202;-72
2023/11/19 05:44:21;;;;;;;3.77;2.93;;;;;;;4.66;97.87;100382.69;5027328;28;20226;-72
2023/11/19 05:46:47;;;;;;;4.73;2.73;;;;;;;4.66;98.50;100380.06;5025403;28;20200;-72
2023/11/19 05:49:14;;;;;;;4.50;3.10;;;;;;;4.65;98.17;100379.28;5023906;28;20703;-72
2023/11/19 05:51:41;;;;;;;2.83;2.47;;;;;;;4.65;98.19;100379.28;5025257;28;20219;-72
2023/11/19 05:54:09;;;;;;;3.50;3.00;;;;;;;4.67;98.52;100365.94;5020617;28;20206;-72
2023/11/19 05:56:36;;;;;;;3.93;2.97;;;;;;;4.67;98.68;100355.47;5028991;28;20200;-72
2023/11/19 05:59:06;;;;;;;4.13;2.60;;;;;;;4.66;98.55;100346.84;5024787;28;20206;-72
2023/11/19 06:01:33;;;;;;;2.97;2.57;;;;;;;4.67;99.03;100342.38;5023848;28;20211;-73
2023/11/19 06:04:00;;;;;;;2.93;2.60;;;;;;;4.68;99.26;100339.50;5026354;28;20215;-73
2023/11/19 06:06:27;;;;;;;3.47;2.60;;;;;;;4.68;99.07;100343.94;5021200;28;20294;-72
2023/11/19 06:08:53;;;;;;;4.27;2.67;;;;;;;4.69;99.26;100341.03;5024255;28;20668;-73
2023/11/19 06:11:21;;;;;;;4.37;2.50;;;;;;;4.69;99.38;100320.13;5018451;28;20208;-73
2023/11/19 06:13:47;;;;;;;2.87;2.33;;;;;;;4.70;99.53;100326.09;5025171;28;20202;-73
2023/11/19 06:16:14;;;;;;;5.23;2.60;;;;;;;4.70;99.80;100324.28;5026768;28;20215;-72
2023/11/19 06:18:41;;;;;;;6.00;2.60;;;;;;;4.70;100.00;100339.97;5022004;28;20201;-73
2023/11/19 06:21:08;;;;;;;4.10;2.40;;;;;;;4.72;99.85;100329.22;5016878;28;20207;-72
2023/11/19 06:23:34;;;;;;;3.67;2.40;;;;;;;4.72;99.82;100318.75;5026538;28;20218;-73
2023/11/19 06:26:00;;;;;;;3.00;2.60;;;;;;;4.74;100.00;100308.75;5022306;28;20223;-73
2023/11/19 06:28:28;;;;;;;3.87;2.70;;;;;;;4.74;100.00;100296.47;5023052;28;20430;-73
2023/11/19 06:30:55;;;;;;;3.30;2.40;;;;;;;4.75;100.00;100284.94;5026552;28;20191;-73
2023/11/19 06:33:22;;;;;;;3.27;2.53;;;;;;;4.75;100.00;100278.91;5025849;28;20230;-73
2023/11/19 06:35:49;;;;;;;2.90;2.60;;;;;;;4.75;100.00;100269.25;5025561;28;20215;-73
2023/11/19 06:38:15;;;;;;;3.67;2.87;;;;;;;4.76;100.00;100283.88;5026722;28;20593;-73
2023/11/19 06:40:42;;;;;;;5.00;3.00;;;;;;;4.77;100.00;100290.63;5027210;28;20223;-73
2023/11/19 06:43:09;;;;;;;5.03;3.17;;;;;;;4.80;100.00;100294.50;5031417;28;20199;-73
2023/11/19 06:45:37;;;;;;;3.20;2.67;;;;;;;4.81;100.00;100314.38;5031166;28;20219;-73
2023/11/19 06:48:04;;;;;;;4.03;3.10;;;;;;;4.82;100.00;100311.47;5024972;28;20210;-73
2023/11/19 06:50:30;;;;;;;6.07;3.10;;;;;;;4.83;100.00;100346.25;5026257;28;20531;-73
2023/11/19 06:52:57;;;;;;;4.60;2.70;;;;;;;4.84;100.00;100335.50;5027125;28;20207;-75
2023/11/19 06:55:23;;;;;;;3.80;2.83;;;;;;;4.86;100.00;100294.13;5025558;28;20223;-72
2023/11/19 06:57:49;;;;;;;2.93;2.63;;;;;;;4.87;100.00;100287.06;5038412;28;20196;-73
2023/11/19 07:00:18;;;;;;;4.33;2.90;;;;;;;4.87;100.00;100300.88;5029921;28;20208;-73
2023/11/19 07:02:45;;;;;;;2.77;2.40;;;;;;;4.88;100.00;100305.03;5029879;28;20196;-72
2023/11/19 07:05:13;;;;;;;3.37;3.03;;;;;;;4.91;100.00;100314.16;5025896;28;20230;-73
2023/11/19 07:07:40;;;;;;;3.50;2.83;;;;;;;4.90;100.00;100287.22;5028345;28;20238;-73
2023/11/19 07:10:09;;;;;;;5.47;2.60;;;;;;;4.91;100.00;100272.28;5023945;28;20208;-72
2023/11/19 07:12:36;;;;;;;4.17;3.03;;;;;;;4.92;100.00;100268.63;5029341;28;20398;-73
2023/11/19 07:15:02;;;;;;;5.47;3.43;;;;;;;4.92;100.00;100277.25;5026131;28;20217;-73
2023/11/19 07:17:29;;;;;;;4.87;3.37;;;;;;;4.93;100.00;100270.94;5027230;28;20218;-73
2023/11/19 07:19:59;;;;;;;4.77;3.27;;;;;;;4.94;100.00;100272.50;5025913;28;20576;-73
2023/11/19 07:22:26;;;;;;;4.30;2.97;;;;;;;4.97;100.00;100265.91;5027513;28;20209;-73
2023/11/19 07:24:53;;;;;;;4.03;2.93;;;;;;;4.98;100.00;100260.34;5026820;28;20238;-73
2023/11/19 07:27:19;;;;;;;4.40;3.47;;;;;;;5.01;100.00;100257.16;5031776;28;20199;-73
2023/11/19 07:29:46;;;;;;;7.67;3.00;;;;;;;5.02;100.00;100260.56;5027719;28;20188;-73
2023/11/19 07:32:13;;;;;;;3.83;3.20;;;;;;;5.04;100.00;100274.09;5032337;28;20214;-73
2023/11/19 07:34:39;;;;;;;4.43;3.53;;;;;;;5.05;100.00;100258.13;5027963;28;20208;-73
2023/11/19 07:37:07;;;;;;;4.63;3.50;;;;;;;5.07;100.00;100274.28;5025216;28;20226;-73
2023/11/19 07:39:35;;;;;;;4.20;3.10;;;;;;;5.08;100.00;100270.59;5022404;28;20207;-73
2023/11/19 07:42:01;;;;;;;6.37;4.57;;;;;;;5.11;100.00;100271.84;5026457;28;20569;-73
2023/11/19 07:44:27;;;;;;;4.30;3.60;;;;;;;5.13;100.00;100265.25;5029055;28;20319;-73
2023/11/19 07:46:54;;;;;;;4.30;3.70;;;;;;;5.15;100.00;100267.56;5023769;28;20204;-73
2023/11/19 07:49:20;;;;;;;9.97;6.90;;;;;;;5.17;100.00;100268.03;5040024;28;20209;-73
2023/11/19 07:51:47;;;;;;;5.67;4.07;;;;;;;5.18;100.00;100270.38;5024167;28;20200;-73
2023/11/19 07:54:14;;;;;;;5.10;3.67;;;;;;;5.20;100.00;100259.59;5027596;28;20203;-73
2023/11/19 07:56:41;;;;;;;5.83;4.03;;;;;;;5.22;100.00;100263.47;5025247;28;20730;-73
2023/11/19 07:59:07;;;;;;;6.37;4.80;;;;;;;5.24;100.00;100260.56;5025244;28;20235;-73
2023/11/19 08:01:33;;;;;;;8.10;4.60;;;;;;;5.26;100.00;100255.78;5026092;28;20207;-73
2023/11/19 08:04:01;;;;;;;4.40;3.73;;;;;;;5.28;100.00;100264.13;5025844;28;20208;-73
2023/11/19 08:06:28;;;;;;;9.83;6.20;;;;;;;5.30;100.00;100256.75;5020866;28;20523;-72
2023/11/19 08:08:54;;;;;;;5.67;4.40;;;;;;;5.31;100.00;100253.84;5039341;28;20204;-73
2023/11/19 08:11:22;;;;;;;4.47;4.07;;;;;;;5.34;100.00;100247.25;5025563;28;20200;-73
2023/11/19 08:13:48;;;;;;;5.47;3.77;;;;;;;5.35;100.00;100239.09;5021426;28;20191;-73
2023/11/19 08:16:15;;;;;;;3.83;3.40;;;;;;;5.37;100.00;100229.09;5022849;28;20223;-73
2023/11/19 08:18:44;;;;;;;6.13;3.90;;;;;;;5.39;100.00;100224.31;5027256;28;20222;-73
2023/11/19 08:21:10;;;;;;;6.33;4.07;;;;;;;5.42;100.00;100226.34;5024694;28;20561;-73
2023/11/19 08:23:37;;;;;;;7.43;4.80;;;;;;;5.44;100.00;100212.97;5024175;28;20194;-72
2023/11/19 08:26:04;;;;;;;4.83;4.30;;;;;;;5.46;100.00;100216.81;5019634;28;20227;-72
2023/11/19 08:28:34;;;;;;;5.57;4.33;;;;;;;5.50;100.00;100215.13;5020203;28;20196;-73
2023/11/19 08:31:00;;;;;;;6.63;4.10;;;;;;;5.51;100.00;100208.84;5026860;28;20539;-74
2023/11/19 08:33:27;;;;;;;5.03;3.23;;;;;;;5.54;100.00;100225.81;5022050;28;20450;-74
2023/11/19 08:35:54;;;;;;;4.67;3.50;;;;;;;5.57;100.00;100217.31;5018299;28;20212;-74
2023/11/19 08:38:20;;;;;;;3.47;3.03;;;;;;;5.59;100.00;100210.72;5024391;28;20210;-74
2023/11/19 08:40:46;;;;;;;4.23;3.67;;;;;;;5.63;100.00;100216.91;5023522;28;20192;-74
2023/11/19 08:43:13;;;;;;;6.33;4.57;;;;;;;5.66;100.00;100215.53;5023770;28;20235;-74
2023/11/19 08:45:40;;;;;;;5.17;3.23;;;;;;;5.68;100.00;100216.78;5017361;28;20925;-74
2023/11/19 08:48:07;;;;;;;5.17;3.70;;;;;;;5.71;100.00;100220.63;5038563;28;20209;-74
2023/11/19 08:50:33;;;;;;;4.87;4.07;;;;;;;5.73;100.00;100208.78;5023870;28;20204;-73
2023/11/19 08:52:59;;;;;;;6.43;4.50;;;;;;;5.74;100.00;100207.69;5018224;28;20208;-73
2023/11/19 08:55:26;;;;;;;7.57;4.50;;;;;;;5.78;100.00;100205.25;5022987;28;20219;-73
2023/11/19 08:57:52;;;;;;;12.87;6.63;;;;;;;5.81;100.00;100207.31;5021699;28;20413;-73
2023/11/19 09:00:21;;;;;;;5.10;3.50;;;;;;;5.84;100.00;100201.44;5017080;28;20200;-74
2023/11/19 09:02:48;;;;;;;9.00;5.10;;;;;;;5.87;100.00;100204.25;5023187;28;20204;-74
2023/11/19 09:05:15;;;;;;;6.07;4.00;;;;;;;5.90;100.00;100195.78;5040454;28;20486;-74
2023/11/19 09:07:41;;;;;;;5.67;4.03;;;;;;;5.95;100.00;100190.41;5025861;28;20207;-73
2023/11/19 09:10:08;;;;;;;5.43;3.90;;;;;;;6.01;100.00;100197.03;5026570;28;20202;-73
2023/11/19 09:12:35;;;;;;;4.07;3.20;;;;;;;6.09;100.00;100198.13;5025846;28;20192;-74
2023/11/19 09:15:01;;;;;;;4.27;3.27;;;;;;;6.14;100.00;100193.53;5020396;28;20707;-74
2023/11/19 09:17:28;;;;;;;4.60;3.50;;;;;;;6.20;100.00;100199.41;5021982;28;20204;-73
2023/11/19 09:19:56;;;;;;;3.80;2.93;;;;;;;6.27;100.00;100194.50;5020733;28;20565;-74
2023/11/19 09:22:22;;;;;;;4.27;3.10;;;;;;;6.31;100.00;100190.94;5022151;28;20204;-73
2023/11/19 09:24:48;;;;;;;3.63;3.10;;;;;;;6.38;100.00;100193.88;5021655;28;20246;-73
2023/11/19 09:27:15;;;;;;;4.77;3.40;;;;;;;6.45;100.00;100194.22;5025090;28;20211;-74
2023/11/19 09:29:43;;;;;;;6.30;3.20;;;;;;;6.54;100.00;100202.88;5024761;28;20254;-74
2023/11/19 09:32:09;;;;;;;5.03;3.93;;;;;;;6.65;100.00;100195.47;5026389;28;20257;-74
2023/11/19 09:34:35;;;;;;;7.13;4.17;;;;;;;6.74;100.00;100180.50;5019609;28;20209;-74
2023/11/19 09:37:03;;;;;;;8.23;4.17;;;;;;;6.84;100.00;100194.06;5018712;28;20192;-74
2023/11/19 09:39:30;;;;;;;5.27;3.97;;;;;;;6.95;100.00;100189.28;5022948;28;20318;-74
2023/11/19 09:41:57;;;;;;;5.03;4.03;;;;;;;7.03;100.00;100180.63;5017469;28;20204;-73
2023/11/19 09:44:24;;;;;;;4.13;3.70;;;;;;;7.10;100.00;100183.56;5016640;28;20232;-74
2023/11/19 09:46:51;;;;;;;5.60;3.27;;;;;;;7.15;100.00;100180.75;5017717;28;20210;-74
2023/11/19 09:49:22;;;;;;;4.77;3.93;;;;;;;7.20;100.00;100177.97;5031440;28;20214;-74
2023/11/19 09:51:48;;;;;;;6.53;4.73;;;;;;;7.27;100.00;100175.63;5020017;28;20222;-74
2023/11/19 09:54:16;;;;;;;6.73;5.70;;;;;;;7.32;100.00;100165.75;5015878;28;20200;-73
2023/11/19 09:56:44;;;;;;;7.70;6.37;;;;;;;7.40;100.00;100164.19;5016170;28;20593;-73
2023/11/19 09:59:11;;;;;;;8.00;6.00;;;;;;;7.46;100.00;100176.81;5017381;28;20213;-74
2023/11/19 10:01:39;;;;;;;12.60;6.27;;;;;;;7.55;100.00;100168.91;5015706;28;20221;-74
2023/11/19 10:04:07;;;;;;;7.17;5.97;;;;;;;7.64;100.00;100174.91;5018784;28;20212;-74
2023/11/19 10:06:33;;;;;;;7.03;5.27;;;;;;;7.76;100.00;100172.41;5016769;28;20371;-73
2023/11/19 10:09:00;;;;;;;4.93;4.07;;;;;;;7.87;100.00;100168.31;5019406;28;20202;-74
2023/11/19 10:11:27;;;;;;;3.17;2.80;;;;;;;8.00;100.00;100168.09;5018401;28;20211;-73
2023/11/19 10:13:54;;;;;;;3.17;2.73;;;;;;;8.10;100.00;100166.94;5016962;28;20194;-74
2023/11/19 10:16:21;;;;;;;3.17;2.80;;;;;;;8.20;100.00;100162.13;5023771;28;20616;-74
2023/11/19 10:18:50;;;;;;;2.53;1.90;;;;;;;8.34;100.00;100164.50;5019329;28;20568;-74
2023/11/19 10:21:18;;;;;;;3.40;1.80;;;;;;;8.46;100.00;100154.81;5019173;28;20208;-73
2023/11/19 10:23:51;;;;;;;4.63;2.23;;;;;;;8.67;100.00;100152.19;5022657;28;20206;-74
2023/11/19 10:26:18;;;;;;;3.53;2.03;;;;;;;8.81;100.00;100153.44;5020286;28;20606;-74
2023/11/19 10:28:47;;;;;;;3.00;1.80;;;;;;;8.95;100.00;100153.94;5020052;28;20615;-74
2023/11/19 10:31:13;;;;;;;3.63;2.20;;;;;;;9.10;100.00;100147.28;5019937;28;20197;-73
2023/11/19 10:33:40;;;;;;;3.60;1.50;;;;;;;9.23;100.00;100147.00;5021288;28;20282;-74
2023/11/19 10:36:07;;;;;;;2.83;1.80;;;;;;;9.35;100.00;100140.97;5021207;28;20223;-74
2023/11/19 10:38:34;;;;;;;2.63;1.80;;;;;;;9.48;100.00;100135.38;5018424;28;20215;-74
2023/11/19 10:41:01;;;;;;;2.30;1.70;;;;;;;9.63;100.00;100141.88;5019939;28;20575;-74
2023/11/19 10:43:27;;;;;;;3.47;1.53;;;;;;;9.79;100.00;100137.50;5017197;28;20201;-74
2023/11/19 10:46:09;;;;;;;2.20;1.73;;;;;;;9.97;100.00;100133.50;5015603;28;20215;-73
2023/11/19 10:48:36;;;;;;;2.80;1.60;;;;;;;10.16;100.00;100131.88;5028293;28;20208;-74
2023/11/19 10:51:07;;;;;;;3.57;1.90;;;;;;;10.30;100.00;100127.00;5013341;28;20266;-74
2023/11/19 10:53:36;;;;;;;3.00;2.10;;;;;;;10.39;100.00;100124.22;5022696;28;20273;-74
2023/11/19 10:56:08;;;;;;;3.97;2.40;;;;;;;10.49;100.00;100129.03;5017122;28;20204;-74
2023/11/19 10:58:37;;;;;;;5.47;2.23;;;;;;;10.57;100.00;100125.50;5022728;28;20213;-74
2023/11/19 11:01:12;;;;;;;5.20;1.83;;;;;;;10.68;100.00;100121.25;5021705;28;20221;-74
2023/11/19 11:03:40;;;;;;;3.07;1.73;;;;;;;10.80;100.00;100110.63;5016329;28;20264;-73
2023/11/19 11:06:08;;;;;;;4.93;3.13;;;;;;;10.89;100.00;100124.47;5016225;28;20604;-74
2023/11/19 11:08:38;;;;;;;4.13;2.43;;;;;;;11.00;100.00;100112.31;5017663;28;21088;-74
2023/11/19 11:11:06;;;;;;;2.97;2.33;;;;;;;11.11;100.00;100114.13;5022943;28;20197;-74
2023/11/19 11:13:33;;;;;;;7.97;3.60;;;;;;;11.23;100.00;100121.22;5018370;28;20989;-74
2023/11/19 11:16:01;;;;;;;9.37;5.30;;;;;;;11.32;100.00;100119.16;5016142;28;20221;-74
2023/11/19 11:18:28;;;;;;;8.03;2.73;;;;;;;11.43;99.34;100125.47;5017513;28;20266;-74
2023/11/19 11:20:59;;;;;;;4.87;2.27;;;;;;;11.50;99.80;100123.75;5019772;28;20199;-74
2023/11/19 11:23:39;;;;;;;6.37;2.67;;;;;;;11.56;97.11;100116.34;5016991;28;20462;-73
2023/11/19 11:26:25;;;;;;;5.97;2.77;;;;;;;11.59;96.17;100119.09;5017614;28;20207;-73
2023/11/19 11:28:59;;;;;;;7.07;1.53;;;;;;;11.61;93.97;100116.88;5020969;28;20225;-74